Terminal Aerodrome Forecast
Issued by NWS Greer, SC

Home | Current Version | Previous Version | Text Only | Print | Product List | Glossary On
Versions: 1 2 3 4 5 6 7 8 9 10 11 12 13 14 15
000
FTUS42 KGSP 252320
TAFAVL
TAF
KAVL 252320Z 2600/2624 34010KT P6SM SCT060
     FM260300 34006KT P6SM FEW250
     FM261400 34012KT P6SM SKC=

USA.gov is the U.S. government's official web portal to all federal, state and local government web resources and services.